Terminal Aerodrome Forecast
Issued by NWS Des Moines, IA

Current Version | Previous Version | Text Only | Print | Product List | Glossary On
Versions: 1 2 3 4 5 6 7 8 9 10 11 12 13 14 15 16 17 18 19 20 21 22 23
000
FTUS43 KDMX 251139
TAFALO
TAF
KALO 251139Z 2512/2612 14009KT P6SM BKN150
     FM251500 14007KT P6SM VCSH BKN100
     FM251900 12010KT P6SM OVC050
     FM260200 13008KT P6SM -SHRA OVC035
     FM260500 17009KT 5SM -SHRA OVC018
     FM260800 25010KT 5SM BR OVC009=

USA.gov is the U.S. government's official web portal to all federal, state and local government web resources and services.